Miami, Florida
Traffic Map
Current Weather Conditions
Miami, Florida
Broken Clouds
Broken Clouds
26°
Feels Like: 27°
Wind Chill: 26° Ceiling: 2500
Heat Index: 27° Visibility: 10mi
Dew Point: 20° Wind: 15mph
Humidity: 71% Direction: 90° (E)
Pressure: 29.99in Gusts: 0mph
Raw Report DataKMIA 010553Z 09013KT 10SM BKN025 BKN039 BKN250 26/20 A2999 RMK AO2 SLP157 T02560200 10256 20250 53002
Traffic Incident Summary
Active as of:
Severity:
Category:
InformationThere was an issue retrieving the traffic information for this location. Please try a different location or try again shortly.
Advertisements
Track Severe Weather on mobile